createdAt,value
2019-01-13T00:13:33.724Z,99660.95
2019-01-13T00:16:21.152Z,99661.80
2019-01-13T00:19:12.080Z,99652.27
2019-01-13T00:37:54.034Z,99661.94
2019-01-13T00:56:20.821Z,99661.90
2019-01-13T00:59:09.028Z,99663.98
2019-01-13T01:01:58.830Z,99667.53
2019-01-13T01:04:47.413Z,99656.53
2019-01-13T01:07:35.403Z,99655.94
2019-01-13T01:10:24.223Z,99655.17
2019-01-13T01:13:14.795Z,99655.86
2019-01-13T01:16:03.272Z,99653.62
2019-01-13T02:20:12.464Z,99663.84
2019-01-13T02:23:01.586Z,99662.18
2019-01-13T02:50:50.138Z,99643.01
2019-01-13T02:53:38.593Z,99647.76
2019-01-13T02:56:26.659Z,99646.56
2019-01-13T02:59:17.831Z,99647.38
2019-01-13T03:02:05.555Z,99650.38
2019-01-13T03:04:53.102Z,99650.25
2019-01-13T03:07:42.338Z,99649.23
2019-01-13T03:17:13.106Z,99632.61
2019-01-13T03:20:02.550Z,99648.12
2019-01-13T03:22:51.954Z,99648.12
2019-01-13T03:25:39.591Z,99650.08
2019-01-13T03:28:28.980Z,99641.06
2019-01-13T05:03:30.781Z,99572.55
2019-01-13T05:06:18.530Z,99570.14
2019-01-13T05:37:43.037Z,99563.97
2019-01-13T05:40:31.325Z,99556.33
2019-01-13T05:43:19.859Z,99561.34
2019-01-13T05:46:07.320Z,99554.29
2019-01-13T06:33:49.522Z,99507.22
2019-01-13T06:36:38.227Z,99507.77
2019-01-13T07:11:11.279Z,99505.14
2019-01-13T07:17:13.143Z,99501.80
2019-01-13T07:52:31.954Z,99453.41
2019-01-13T07:58:54.466Z,99447.13
2019-01-13T08:14:52.333Z,99410.70
2019-01-13T08:17:40.827Z,99421.35
2019-01-13T09:01:34.783Z,99349.36
2019-01-13T09:14:07.659Z,99325.05
2019-01-13T09:16:56.524Z,99324.49
2019-01-13T09:32:16.717Z,99279.52
2019-01-13T09:47:31.876Z,99248.55
2019-01-13T09:59:51.664Z,99206.77
2019-01-13T10:08:30.128Z,99185.29
2019-01-13T10:11:18.780Z,99158.36
2019-01-13T10:14:05.808Z,99145.16
2019-01-13T10:20:03.570Z,99135.39
2019-01-13T10:25:56.802Z,99124.06
2019-01-13T10:28:44.317Z,99124.27
2019-01-13T10:31:33.742Z,99112.71
2019-01-13T10:34:21.435Z,99101.75
2019-01-13T10:37:08.837Z,99090.81
2019-01-13T10:43:03.901Z,99074.41
2019-01-13T10:46:03.585Z,99061.45
2019-01-13T10:48:52.293Z,99051.14
2019-01-13T10:51:40.945Z,99040.66
2019-01-13T10:54:29.938Z,99036.07
2019-01-13T10:57:17.465Z,99024.70
2019-01-13T11:00:19.085Z,99020.13
2019-01-13T11:03:06.214Z,99003.41
2019-01-13T11:09:00.559Z,98988.56
2019-01-13T11:11:47.702Z,98982.94
2019-01-13T11:14:35.529Z,98967.75
2019-01-13T11:17:22.857Z,98960.48
2019-01-13T11:20:25.005Z,98950.95
2019-01-13T11:23:12.202Z,98944.06
2019-01-13T11:26:00.779Z,98932.28
2019-01-13T11:28:48.644Z,98921.89
2019-01-13T11:31:36.965Z,98914.62
2019-01-13T11:34:24.255Z,98897.92
2019-01-13T11:37:11.325Z,98893.94
2019-01-13T11:39:59.907Z,98899.78
2019-01-13T11:42:47.498Z,98891.20
2019-01-13T11:45:34.682Z,98883.79
2019-01-13T11:48:21.839Z,98881.17
2019-01-13T11:51:10.388Z,98872.31
2019-01-13T11:53:58.933Z,98862.50
2019-01-13T11:56:46.443Z,98853.64
2019-01-13T12:02:40.781Z,98822.08
2019-01-13T12:05:31.894Z,98823.12
2019-01-13T12:11:26.765Z,98818.10
2019-01-13T12:14:13.837Z,98797.49
2019-01-13T12:17:09.249Z,98798.70
2019-01-13T12:19:58.654Z,98779.00
2019-01-13T12:22:45.702Z,98778.75
2019-01-13T12:25:32.946Z,98771.27
2019-01-13T12:28:20.464Z,98773.20
2019-01-13T12:31:07.789Z,98758.44
2019-01-13T12:33:55.270Z,98740.39
2019-01-13T12:36:42.672Z,98740.40
2019-01-13T12:39:29.752Z,98738.92
2019-01-13T12:42:17.215Z,98735.97
2019-01-13T12:45:04.812Z,98728.13
2019-01-13T12:47:52.698Z,98708.38
2019-01-13T12:50:40.260Z,98688.77
2019-01-13T12:53:27.637Z,98686.98
2019-01-13T12:56:15.009Z,98678.89
2019-01-13T12:59:02.573Z,98669.91
2019-01-13T13:01:51.202Z,98667.81
2019-01-13T13:04:40.892Z,98660.88
2019-01-13T13:07:32.508Z,98655.58
2019-01-13T13:13:33.330Z,98644.77
2019-01-13T13:16:20.953Z,98651.59
2019-01-13T13:19:09.448Z,98624.94
2019-01-13T13:21:57.366Z,98613.07
2019-01-13T13:24:44.581Z,98595.75
2019-01-13T13:27:34.379Z,98599.08
2019-01-13T13:30:21.513Z,98602.42
2019-01-13T13:33:08.648Z,98596.75
2019-01-13T13:35:56.408Z,98580.19
2019-01-13T13:38:43.952Z,98585.19
2019-01-13T13:41:31.061Z,98577.36
2019-01-13T13:44:18.554Z,98580.00
2019-01-13T13:47:06.319Z,98564.42
2019-01-13T13:49:53.597Z,98567.61
2019-01-13T13:52:48.793Z,98567.55
2019-01-13T13:55:36.573Z,98568.03
2019-01-13T13:58:25.263Z,98567.91
2019-01-13T14:01:12.910Z,98563.59
2019-01-13T14:04:01.449Z,98557.26
2019-01-13T14:06:51.048Z,98553.00
2019-01-13T14:09:40.032Z,98541.66
2019-01-13T14:15:43.478Z,98547.77
2019-01-13T14:18:39.308Z,98544.66
2019-01-13T14:21:31.515Z,98537.53
2019-01-13T14:24:20.518Z,98544.16
2019-01-13T14:27:11.033Z,98538.80
2019-01-13T14:29:58.472Z,98545.55
2019-01-13T14:32:47.713Z,98550.60
2019-01-13T14:35:38.560Z,98543.88
2019-01-13T14:38:30.277Z,98534.69
2019-01-13T14:41:23.248Z,98536.56
2019-01-13T14:44:12.222Z,98533.34
2019-01-13T14:47:00.332Z,98535.67
2019-01-13T14:49:52.772Z,98545.24
2019-01-13T14:52:49.048Z,98527.86
2019-01-13T14:55:37.447Z,98518.11
2019-01-13T14:58:32.269Z,98497.92
2019-01-13T15:01:21.047Z,98486.66
2019-01-13T15:04:21.675Z,98483.23
2019-01-13T15:07:11.759Z,98478.69
2019-01-13T15:09:59.444Z,98483.01
2019-01-13T15:12:50.640Z,98470.67
2019-01-13T15:15:39.537Z,98466.36
2019-01-13T15:18:31.005Z,98459.30
2019-01-13T15:21:18.640Z,98455.73
2019-01-13T15:24:07.004Z,98450.47
2019-01-13T15:27:01.642Z,98452.14
2019-01-13T15:30:01.574Z,98453.95
2019-01-13T15:32:52.048Z,98457.06
2019-01-13T15:35:50.184Z,98450.58
2019-01-13T15:38:43.864Z,98423.77
2019-01-13T15:41:32.617Z,98414.12
2019-01-13T15:44:21.938Z,98422.38
2019-01-13T15:47:15.099Z,98422.59
2019-01-13T15:50:05.066Z,98426.36
2019-01-13T15:52:53.930Z,98417.63
2019-01-13T15:55:41.887Z,98417.69
2019-01-13T15:58:31.593Z,98414.34
2019-01-13T16:01:20.974Z,98415.89
2019-01-13T16:04:14.481Z,98414.70
2019-01-13T16:06:55.743Z,98416.66
2019-01-13T16:09:44.462Z,98424.52
2019-01-13T16:12:34.715Z,98418.95
2019-01-13T16:15:39.064Z,98409.31
2019-01-13T16:18:27.385Z,98387.80
2019-01-13T16:21:14.989Z,98371.08
2019-01-13T16:24:02.652Z,98378.03
2019-01-13T16:26:50.208Z,98370.27
2019-01-13T16:29:39.385Z,98354.86
2019-01-13T16:32:27.200Z,98347.16
2019-01-13T16:35:17.852Z,98341.23
2019-01-13T16:41:18.846Z,98340.05
2019-01-13T16:44:07.570Z,98334.61
2019-01-13T16:47:00.585Z,98332.59
2019-01-13T16:49:48.707Z,98325.70
2019-01-13T16:52:41.015Z,98311.39
2019-01-13T16:55:44.501Z,98299.46
2019-01-13T16:58:33.333Z,98297.44
2019-01-13T17:01:20.808Z,98288.76
2019-01-13T17:04:08.135Z,98285.35
2019-01-13T17:06:59.075Z,98285.35
2019-01-13T17:12:52.876Z,98279.66
2019-01-13T17:15:40.711Z,98261.01
2019-01-13T17:18:29.417Z,98261.84
2019-01-13T17:21:18.020Z,98245.14
2019-01-13T17:24:25.137Z,98234.86
2019-01-13T17:27:12.231Z,98242.58
2019-01-13T17:29:59.228Z,98225.41
2019-01-13T17:32:46.750Z,98210.37
2019-01-13T17:35:34.555Z,98227.28
2019-01-13T17:38:22.787Z,98217.84
2019-01-13T17:41:11.628Z,98207.98
2019-01-13T17:43:59.497Z,98207.28
2019-01-13T17:46:46.672Z,98203.08
2019-01-13T17:49:34.122Z,98200.44
2019-01-13T17:52:22.285Z,98191.66
2019-01-13T17:55:11.005Z,98198.70
2019-01-13T17:58:00.060Z,98201.80
2019-01-13T18:00:48.468Z,98195.44
2019-01-13T18:03:39.898Z,98206.67
2019-01-13T18:06:27.364Z,98208.59
2019-01-13T18:09:14.764Z,98201.60
2019-01-13T18:12:02.173Z,98191.80
2019-01-13T18:14:50.210Z,98193.84
2019-01-13T18:17:37.661Z,98187.59
2019-01-13T18:20:25.230Z,98174.13
2019-01-13T18:23:12.788Z,98175.30
2019-01-13T18:26:03.347Z,98181.83
2019-01-13T18:28:50.813Z,98181.34
2019-01-13T18:31:41.560Z,98180.56
2019-01-13T18:34:28.633Z,98190.14
2019-01-13T18:37:23.419Z,98186.27
2019-01-13T18:40:13.969Z,98203.47
2019-01-13T18:43:04.379Z,98224.56
2019-01-13T18:45:51.578Z,98211.05
2019-01-13T18:48:42.299Z,98235.13
2019-01-13T18:51:29.725Z,98260.73
2019-01-13T18:57:24.001Z,98279.84
2019-01-13T19:00:19.726Z,98282.00
2019-01-13T19:03:09.724Z,98279.95
2019-01-13T19:05:57.206Z,98269.70
2019-01-13T19:08:46.194Z,98280.19
2019-01-13T19:11:52.888Z,98282.86
2019-01-13T19:14:41.275Z,98276.16
2019-01-13T19:17:28.945Z,98285.84
2019-01-13T19:20:16.327Z,98290.30
2019-01-13T19:23:03.345Z,98277.30
2019-01-13T19:25:50.887Z,98276.47
2019-01-13T19:28:38.215Z,98271.21
2019-01-13T19:31:25.146Z,98283.91
2019-01-13T19:34:12.796Z,98281.09
2019-01-13T19:37:00.224Z,98292.70
2019-01-13T19:39:48.187Z,98287.77
2019-01-13T19:42:35.645Z,98273.84
2019-01-13T19:45:22.702Z,98280.95
2019-01-13T19:48:09.927Z,98284.57
2019-01-13T19:50:57.194Z,98281.09
2019-01-13T19:53:44.575Z,98287.16
2019-01-13T19:56:32.028Z,98292.72
2019-01-13T19:59:20.552Z,98285.48
2019-01-13T20:02:07.704Z,98298.52
2019-01-13T20:04:56.584Z,98283.44
2019-01-13T20:07:44.375Z,98290.61
2019-01-13T20:10:36.820Z,98284.73
2019-01-13T20:13:25.038Z,98289.50
2019-01-13T20:16:13.683Z,98295.80
2019-01-13T20:19:01.234Z,98284.38
2019-01-13T20:21:49.254Z,98283.63
2019-01-13T20:24:37.705Z,98289.81
2019-01-13T20:27:32.672Z,98290.44
2019-01-13T20:30:23.635Z,98295.38
2019-01-13T20:33:10.804Z,98273.73
2019-01-13T20:35:59.162Z,98289.46
2019-01-13T20:38:46.151Z,98306.98
2019-01-13T20:41:33.333Z,98309.62
2019-01-13T20:44:27.303Z,98294.18
2019-01-13T20:47:14.972Z,98296.33
2019-01-13T20:50:20.101Z,98303.52
2019-01-13T20:53:08.549Z,98300.30
2019-01-13T20:55:58.530Z,98295.45
2019-01-13T20:58:45.763Z,98297.29
2019-01-13T21:01:33.036Z,98314.17
2019-01-13T21:04:20.709Z,98301.05
2019-01-13T21:07:08.990Z,98319.25
2019-01-13T21:09:56.230Z,98335.94
2019-01-13T21:12:43.497Z,98332.92
2019-01-13T21:15:30.639Z,98316.48
2019-01-13T21:18:19.237Z,98314.19
2019-01-13T21:21:06.874Z,98321.55
2019-01-13T21:23:54.969Z,98310.55
2019-01-13T21:26:43.885Z,98307.91
2019-01-13T21:29:31.102Z,98322.91
2019-01-13T21:32:18.586Z,98333.06
2019-01-13T21:35:06.029Z,98340.46
2019-01-13T21:37:56.081Z,98322.17
2019-01-13T21:40:45.154Z,98329.02
2019-01-13T21:43:32.394Z,98320.71
2019-01-13T21:46:20.124Z,98315.39
2019-01-13T21:49:07.806Z,98324.81
2019-01-13T21:51:55.102Z,98323.77
2019-01-13T21:54:43.234Z,98325.92
2019-01-13T21:57:30.799Z,98318.69
2019-01-13T22:00:18.473Z,98331.06
2019-01-13T22:03:05.966Z,98326.04
2019-01-13T22:05:53.537Z,98331.52
2019-01-13T22:08:44.754Z,98321.98
2019-01-13T22:11:42.267Z,98319.15
2019-01-13T22:14:32.306Z,98315.09
2019-01-13T22:20:28.569Z,98334.26
2019-01-13T22:23:17.198Z,98322.18
2019-01-13T22:26:03.674Z,98315.93
2019-01-13T22:28:53.354Z,98319.46
2019-01-13T22:31:41.051Z,98319.46
2019-01-13T22:34:28.242Z,98322.33
2019-01-13T22:37:19.717Z,98310.66
2019-01-13T22:40:07.160Z,98316.52
2019-01-13T22:42:57.419Z,98313.31
2019-01-13T22:45:47.219Z,98324.16
2019-01-13T22:48:34.330Z,98333.61
2019-01-13T22:51:22.677Z,98353.86
2019-01-13T22:54:10.538Z,98355.48
2019-01-13T22:57:00.578Z,98356.73
2019-01-13T22:59:50.481Z,98354.73
2019-01-13T23:02:38.946Z,98360.11
2019-01-13T23:05:27.091Z,98363.58
2019-01-13T23:08:15.260Z,98356.13
2019-01-13T23:11:02.418Z,98345.94
2019-01-13T23:13:50.154Z,98356.17
2019-01-13T23:16:37.858Z,98346.75
2019-01-13T23:19:27.716Z,98340.14
2019-01-13T23:22:14.802Z,98350.89
2019-01-13T23:25:02.274Z,98364.36
2019-01-13T23:27:51.187Z,98365.34
2019-01-13T23:30:38.485Z,98353.44
2019-01-13T23:33:26.186Z,98363.04
2019-01-13T23:36:13.289Z,98360.05
2019-01-13T23:39:01.103Z,98370.13
2019-01-13T23:41:48.761Z,98370.48
2019-01-13T23:44:37.355Z,98379.31
2019-01-13T23:47:24.622Z,98393.94
2019-01-13T23:50:12.262Z,98401.02
2019-01-13T23:53:03.645Z,98413.55
2019-01-13T23:55:51.927Z,98413.75
2019-01-13T23:58:39.125Z,98404.86
